sensor_id;sensor_type;location;lat;lon;timestamp;P1;durP1;ratioP1;P2;durP2;ratioP2
4895;SDS011;2463;49.948;8.472;2022-08-23T00:01:24;92.65;;;5.40;;
4895;SDS011;2463;49.948;8.472;2022-08-23T00:03:57;90.57;;;4.80;;
4895;SDS011;2463;49.948;8.472;2022-08-23T00:06:27;92.78;;;5.30;;
4895;SDS011;2463;49.948;8.472;2022-08-23T00:08:55;94.37;;;5.30;;
4895;SDS011;2463;49.948;8.472;2022-08-23T00:11:23;91.00;;;4.70;;
4895;SDS011;2463;49.948;8.472;2022-08-23T00:13:52;90.28;;;4.90;;
4895;SDS011;2463;49.948;8.472;2022-08-23T00:16:20;92.47;;;5.00;;
4895;SDS011;2463;49.948;8.472;2022-08-23T00:18:47;93.40;;;5.40;;
4895;SDS011;2463;49.948;8.472;2022-08-23T00:21:14;91.03;;;5.03;;
4895;SDS011;2463;49.948;8.472;2022-08-23T00:23:42;90.90;;;5.10;;
4895;SDS011;2463;49.948;8.472;2022-08-23T00:26:09;91.25;;;5.25;;
4895;SDS011;2463;49.948;8.472;2022-08-23T00:28:36;95.80;;;5.40;;
4895;SDS011;2463;49.948;8.472;2022-08-23T00:31:03;92.37;;;5.20;;
4895;SDS011;2463;49.948;8.472;2022-08-23T00:33:30;93.00;;;5.10;;
4895;SDS011;2463;49.948;8.472;2022-08-23T00:35:56;92.63;;;5.47;;
4895;SDS011;2463;49.948;8.472;2022-08-23T00:38:23;96.90;;;4.90;;
4895;SDS011;2463;49.948;8.472;2022-08-23T00:40:59;91.75;;;4.82;;
4895;SDS011;2463;49.948;8.472;2022-08-23T00:43:29;90.85;;;4.78;;
4895;SDS011;2463;49.948;8.472;2022-08-23T00:49:40;93.13;;;4.95;;
4895;SDS011;2463;49.948;8.472;2022-08-23T00:52:22;92.25;;;5.10;;
4895;SDS011;2463;49.948;8.472;2022-08-23T00:54:55;91.82;;;5.25;;
4895;SDS011;2463;49.948;8.472;2022-08-23T00:57:23;92.07;;;5.10;;
4895;SDS011;2463;49.948;8.472;2022-08-23T00:59:50;92.10;;;5.23;;
4895;SDS011;2463;49.948;8.472;2022-08-23T01:02:18;93.40;;;5.68;;
4895;SDS011;2463;49.948;8.472;2022-08-23T01:04:51;93.28;;;5.70;;
4895;SDS011;2463;49.948;8.472;2022-08-23T01:10:27;92.43;;;5.73;;
4895;SDS011;2463;49.948;8.472;2022-08-23T01:13:08;94.82;;;5.40;;
4895;SDS011;2463;49.948;8.472;2022-08-23T01:15:46;91.60;;;4.82;;
4895;SDS011;2463;49.948;8.472;2022-08-23T01:18:18;98.78;;;5.32;;
4895;SDS011;2463;49.948;8.472;2022-08-23T01:23:45;94.15;;;5.43;;
4895;SDS011;2463;49.948;8.472;2022-08-23T01:26:22;92.43;;;5.28;;
4895;SDS011;2463;49.948;8.472;2022-08-23T01:28:51;93.27;;;5.80;;
4895;SDS011;2463;49.948;8.472;2022-08-23T01:31:19;93.28;;;5.40;;
4895;SDS011;2463;49.948;8.472;2022-08-23T01:33:49;92.05;;;5.63;;
4895;SDS011;2463;49.948;8.472;2022-08-23T01:36:21;96.80;;;6.15;;
4895;SDS011;2463;49.948;8.472;2022-08-23T01:38:48;92.78;;;5.18;;
4895;SDS011;2463;49.948;8.472;2022-08-23T01:41:15;97.20;;;5.82;;
4895;SDS011;2463;49.948;8.472;2022-08-23T01:43:42;93.40;;;5.40;;
4895;SDS011;2463;49.948;8.472;2022-08-23T01:46:11;95.07;;;6.05;;
4895;SDS011;2463;49.948;8.472;2022-08-23T01:48:40;94.97;;;5.40;;
4895;SDS011;2463;49.948;8.472;2022-08-23T01:51:07;95.55;;;5.85;;
4895;SDS011;2463;49.948;8.472;2022-08-23T01:53:34;95.05;;;5.20;;
4895;SDS011;2463;49.948;8.472;2022-08-23T01:56:01;98.03;;;5.88;;
4895;SDS011;2463;49.948;8.472;2022-08-23T01:58:32;94.68;;;5.72;;
4895;SDS011;2463;49.948;8.472;2022-08-23T02:01:00;93.90;;;5.70;;
4895;SDS011;2463;49.948;8.472;2022-08-23T02:03:27;93.75;;;5.72;;
4895;SDS011;2463;49.948;8.472;2022-08-23T02:05:54;93.70;;;6.05;;
4895;SDS011;2463;49.948;8.472;2022-08-23T02:08:22;94.10;;;5.50;;
4895;SDS011;2463;49.948;8.472;2022-08-23T02:11:09;97.47;;;5.65;;
4895;SDS011;2463;49.948;8.472;2022-08-23T02:13:41;93.70;;;5.30;;
4895;SDS011;2463;49.948;8.472;2022-08-23T02:16:09;93.35;;;5.30;;
4895;SDS011;2463;49.948;8.472;2022-08-23T02:18:40;93.72;;;5.32;;
4895;SDS011;2463;49.948;8.472;2022-08-23T02:21:08;93.10;;;5.63;;
4895;SDS011;2463;49.948;8.472;2022-08-23T02:23:35;95.75;;;5.85;;
4895;SDS011;2463;49.948;8.472;2022-08-23T02:26:02;94.05;;;5.90;;
4895;SDS011;2463;49.948;8.472;2022-08-23T02:28:29;97.60;;;6.05;;
4895;SDS011;2463;49.948;8.472;2022-08-23T02:30:55;93.22;;;5.60;;
4895;SDS011;2463;49.948;8.472;2022-08-23T02:33:23;93.65;;;5.38;;
4895;SDS011;2463;49.948;8.472;2022-08-23T02:35:49;94.77;;;5.67;;
4895;SDS011;2463;49.948;8.472;2022-08-23T02:38:33;98.22;;;5.85;;
4895;SDS011;2463;49.948;8.472;2022-08-23T02:41:00;93.28;;;5.45;;
4895;SDS011;2463;49.948;8.472;2022-08-23T02:43:27;94.97;;;5.45;;
4895;SDS011;2463;49.948;8.472;2022-08-23T02:45:54;93.03;;;5.50;;
4895;SDS011;2463;49.948;8.472;2022-08-23T02:48:21;96.00;;;5.77;;
4895;SDS011;2463;49.948;8.472;2022-08-23T02:50:48;94.07;;;6.00;;
4895;SDS011;2463;49.948;8.472;2022-08-23T02:53:15;93.38;;;5.45;;
4895;SDS011;2463;49.948;8.472;2022-08-23T02:55:43;96.30;;;6.18;;
4895;SDS011;2463;49.948;8.472;2022-08-23T02:58:11;94.80;;;6.03;;
4895;SDS011;2463;49.948;8.472;2022-08-23T03:00:39;95.88;;;7.20;;
4895;SDS011;2463;49.948;8.472;2022-08-23T03:03:06;94.13;;;5.72;;
4895;SDS011;2463;49.948;8.472;2022-08-23T03:05:32;94.65;;;5.75;;
4895;SDS011;2463;49.948;8.472;2022-08-23T03:07:59;92.60;;;5.30;;
4895;SDS011;2463;49.948;8.472;2022-08-23T03:10:26;93.88;;;6.10;;
4895;SDS011;2463;49.948;8.472;2022-08-23T03:12:53;94.68;;;5.90;;
4895;SDS011;2463;49.948;8.472;2022-08-23T03:15:20;98.63;;;5.90;;
4895;SDS011;2463;49.948;8.472;2022-08-23T03:17:46;95.07;;;5.95;;
4895;SDS011;2463;49.948;8.472;2022-08-23T03:20:14;93.80;;;6.25;;
4895;SDS011;2463;49.948;8.472;2022-08-23T03:22:40;94.20;;;5.97;;
4895;SDS011;2463;49.948;8.472;2022-08-23T03:25:20;96.15;;;5.78;;
4895;SDS011;2463;49.948;8.472;2022-08-23T03:27:46;99.53;;;6.80;;
4895;SDS011;2463;49.948;8.472;2022-08-23T03:30:13;95.43;;;6.30;;
4895;SDS011;2463;49.948;8.472;2022-08-23T03:32:45;94.18;;;6.05;;
4895;SDS011;2463;49.948;8.472;2022-08-23T03:35:14;96.18;;;6.40;;
4895;SDS011;2463;49.948;8.472;2022-08-23T03:37:41;94.13;;;6.38;;
4895;SDS011;2463;49.948;8.472;2022-08-23T03:40:08;97.30;;;7.18;;
4895;SDS011;2463;49.948;8.472;2022-08-23T03:42:36;97.38;;;6.70;;
4895;SDS011;2463;49.948;8.472;2022-08-23T03:45:02;94.47;;;6.15;;
4895;SDS011;2463;49.948;8.472;2022-08-23T03:47:29;98.43;;;6.68;;
4895;SDS011;2463;49.948;8.472;2022-08-23T03:49:56;94.95;;;5.90;;
4895;SDS011;2463;49.948;8.472;2022-08-23T03:52:24;95.57;;;6.35;;
4895;SDS011;2463;49.948;8.472;2022-08-23T03:54:50;97.90;;;6.70;;
4895;SDS011;2463;49.948;8.472;2022-08-23T03:57:17;94.28;;;6.30;;
4895;SDS011;2463;49.948;8.472;2022-08-23T03:59:44;94.43;;;6.40;;
4895;SDS011;2463;49.948;8.472;2022-08-23T04:02:11;94.82;;;5.88;;
4895;SDS011;2463;49.948;8.472;2022-08-23T04:04:38;96.88;;;6.50;;
4895;SDS011;2463;49.948;8.472;2022-08-23T04:07:05;95.47;;;6.72;;
4895;SDS011;2463;49.948;8.472;2022-08-23T04:09:32;93.87;;;6.17;;
4895;SDS011;2463;49.948;8.472;2022-08-23T04:11:58;95.80;;;7.10;;
4895;SDS011;2463;49.948;8.472;2022-08-23T04:14:25;95.28;;;6.35;;
4895;SDS011;2463;49.948;8.472;2022-08-23T04:16:52;97.63;;;7.72;;
4895;SDS011;2463;49.948;8.472;2022-08-23T04:19:20;96.10;;;6.97;;
4895;SDS011;2463;49.948;8.472;2022-08-23T04:21:48;95.38;;;6.60;;
4895;SDS011;2463;49.948;8.472;2022-08-23T04:24:17;106.03;;;7.32;;
4895;SDS011;2463;49.948;8.472;2022-08-23T04:26:44;96.07;;;6.60;;
4895;SDS011;2463;49.948;8.472;2022-08-23T04:29:14;97.72;;;6.85;;
4895;SDS011;2463;49.948;8.472;2022-08-23T04:31:59;98.97;;;8.93;;
4895;SDS011;2463;49.948;8.472;2022-08-23T04:34:31;95.60;;;6.60;;
4895;SDS011;2463;49.948;8.472;2022-08-23T04:36:59;99.15;;;6.45;;
4895;SDS011;2463;49.948;8.472;2022-08-23T04:39:27;97.38;;;6.57;;
4895;SDS011;2463;49.948;8.472;2022-08-23T04:41:54;96.95;;;7.30;;
4895;SDS011;2463;49.948;8.472;2022-08-23T04:44:40;97.82;;;7.10;;
4895;SDS011;2463;49.948;8.472;2022-08-23T04:47:06;95.10;;;6.35;;
4895;SDS011;2463;49.948;8.472;2022-08-23T04:49:33;97.35;;;6.57;;
4895;SDS011;2463;49.948;8.472;2022-08-23T04:52:00;94.78;;;6.47;;
4895;SDS011;2463;49.948;8.472;2022-08-23T04:54:27;96.88;;;6.50;;
4895;SDS011;2463;49.948;8.472;2022-08-23T04:56:54;95.43;;;6.80;;
4895;SDS011;2463;49.948;8.472;2022-08-23T04:59:21;95.35;;;6.60;;
4895;SDS011;2463;49.948;8.472;2022-08-23T05:01:48;115.60;;;8.38;;
4895;SDS011;2463;49.948;8.472;2022-08-23T05:04:16;95.63;;;7.13;;
4895;SDS011;2463;49.948;8.472;2022-08-23T05:06:43;94.93;;;6.68;;
4895;SDS011;2463;49.948;8.472;2022-08-23T05:09:11;95.30;;;6.78;;
4895;SDS011;2463;49.948;8.472;2022-08-23T05:11:45;96.93;;;7.00;;
4895;SDS011;2463;49.948;8.472;2022-08-23T05:14:12;95.22;;;6.47;;
4895;SDS011;2463;49.948;8.472;2022-08-23T05:16:38;97.45;;;7.00;;
4895;SDS011;2463;49.948;8.472;2022-08-23T05:19:05;100.80;;;7.47;;
4895;SDS011;2463;49.948;8.472;2022-08-23T05:21:32;95.22;;;6.30;;
4895;SDS011;2463;49.948;8.472;2022-08-23T05:23:59;98.25;;;7.10;;
4895;SDS011;2463;49.948;8.472;2022-08-23T05:26:28;96.30;;;6.93;;
4895;SDS011;2463;49.948;8.472;2022-08-23T05:28:55;97.38;;;6.65;;
4895;SDS011;2463;49.948;8.472;2022-08-23T05:31:23;95.15;;;6.22;;
4895;SDS011;2463;49.948;8.472;2022-08-23T05:33:51;94.60;;;6.68;;
4895;SDS011;2463;49.948;8.472;2022-08-23T05:36:19;95.32;;;7.05;;
4895;SDS011;2463;49.948;8.472;2022-08-23T05:38:47;96.65;;;6.72;;
4895;SDS011;2463;49.948;8.472;2022-08-23T05:41:14;98.30;;;6.80;;
4895;SDS011;2463;49.948;8.472;2022-08-23T05:43:42;94.80;;;7.18;;
4895;SDS011;2463;49.948;8.472;2022-08-23T05:46:10;95.22;;;6.82;;
4895;SDS011;2463;49.948;8.472;2022-08-23T05:48:41;100.60;;;7.05;;
4895;SDS011;2463;49.948;8.472;2022-08-23T05:51:10;95.97;;;7.93;;
4895;SDS011;2463;49.948;8.472;2022-08-23T05:53:39;95.60;;;6.95;;
4895;SDS011;2463;49.948;8.472;2022-08-23T05:56:07;96.18;;;6.65;;
4895;SDS011;2463;49.948;8.472;2022-08-23T05:58:42;97.45;;;7.97;;
4895;SDS011;2463;49.948;8.472;2022-08-23T06:01:09;101.93;;;7.03;;
4895;SDS011;2463;49.948;8.472;2022-08-23T06:03:37;99.57;;;6.60;;
4895;SDS011;2463;49.948;8.472;2022-08-23T06:06:03;96.18;;;6.28;;
4895;SDS011;2463;49.948;8.472;2022-08-23T06:08:32;94.78;;;6.22;;
4895;SDS011;2463;49.948;8.472;2022-08-23T06:11:04;96.97;;;6.65;;
4895;SDS011;2463;49.948;8.472;2022-08-23T06:13:33;95.47;;;6.20;;
4895;SDS011;2463;49.948;8.472;2022-08-23T06:16:00;94.20;;;5.53;;
4895;SDS011;2463;49.948;8.472;2022-08-23T06:18:40;94.97;;;6.33;;
4895;SDS011;2463;49.948;8.472;2022-08-23T06:21:10;94.93;;;6.03;;
4895;SDS011;2463;49.948;8.472;2022-08-23T06:23:38;92.17;;;5.07;;
4895;SDS011;2463;49.948;8.472;2022-08-23T06:26:10;93.95;;;5.65;;
4895;SDS011;2463;49.948;8.472;2022-08-23T06:28:44;91.47;;;5.70;;
4895;SDS011;2463;49.948;8.472;2022-08-23T06:31:17;94.10;;;6.03;;
4895;SDS011;2463;49.948;8.472;2022-08-23T06:34:05;94.80;;;6.30;;
4895;SDS011;2463;49.948;8.472;2022-08-23T06:36:36;92.27;;;5.37;;
4895;SDS011;2463;49.948;8.472;2022-08-23T06:39:04;94.60;;;4.97;;
4895;SDS011;2463;49.948;8.472;2022-08-23T06:41:31;93.57;;;5.57;;
4895;SDS011;2463;49.948;8.472;2022-08-23T06:43:58;91.47;;;5.90;;
4895;SDS011;2463;49.948;8.472;2022-08-23T06:46:26;91.83;;;5.20;;
4895;SDS011;2463;49.948;8.472;2022-08-23T06:48:54;89.73;;;4.30;;
4895;SDS011;2463;49.948;8.472;2022-08-23T06:51:24;88.90;;;4.47;;
4895;SDS011;2463;49.948;8.472;2022-08-23T06:53:54;91.93;;;5.53;;
4895;SDS011;2463;49.948;8.472;2022-08-23T06:56:28;87.23;;;4.33;;
4895;SDS011;2463;49.948;8.472;2022-08-23T06:58:55;89.07;;;4.40;;
4895;SDS011;2463;49.948;8.472;2022-08-23T07:04:24;84.87;;;3.80;;
4895;SDS011;2463;49.948;8.472;2022-08-23T07:06:57;81.13;;;3.57;;
4895;SDS011;2463;49.948;8.472;2022-08-23T07:09:24;81.87;;;4.07;;
4895;SDS011;2463;49.948;8.472;2022-08-23T07:11:52;86.90;;;3.77;;
4895;SDS011;2463;49.948;8.472;2022-08-23T07:14:20;80.77;;;3.10;;
4895;SDS011;2463;49.948;8.472;2022-08-23T07:16:49;80.80;;;3.70;;
4895;SDS011;2463;49.948;8.472;2022-08-23T07:19:23;87.20;;;3.57;;
4895;SDS011;2463;49.948;8.472;2022-08-23T07:21:56;81.50;;;3.60;;
4895;SDS011;2463;49.948;8.472;2022-08-23T07:24:23;81.20;;;3.30;;
4895;SDS011;2463;49.948;8.472;2022-08-23T07:26:58;80.57;;;3.03;;
4895;SDS011;2463;49.948;8.472;2022-08-23T07:29:26;78.87;;;3.30;;
4895;SDS011;2463;49.948;8.472;2022-08-23T07:31:55;80.10;;;3.13;;
4895;SDS011;2463;49.948;8.472;2022-08-23T07:34:22;80.70;;;3.50;;
4895;SDS011;2463;49.948;8.472;2022-08-23T07:36:52;80.10;;;3.00;;
4895;SDS011;2463;49.948;8.472;2022-08-23T07:39:20;82.57;;;3.33;;
4895;SDS011;2463;49.948;8.472;2022-08-23T07:41:48;84.43;;;3.37;;
4895;SDS011;2463;49.948;8.472;2022-08-23T07:44:14;84.90;;;3.53;;
4895;SDS011;2463;49.948;8.472;2022-08-23T07:46:43;80.70;;;3.43;;
4895;SDS011;2463;49.948;8.472;2022-08-23T07:49:11;84.00;;;3.10;;
4895;SDS011;2463;49.948;8.472;2022-08-23T07:51:39;84.67;;;3.50;;
4895;SDS011;2463;49.948;8.472;2022-08-23T07:54:08;84.73;;;3.40;;
4895;SDS011;2463;49.948;8.472;2022-08-23T07:56:36;85.30;;;3.63;;
4895;SDS011;2463;49.948;8.472;2022-08-23T07:59:04;80.40;;;3.47;;
4895;SDS011;2463;49.948;8.472;2022-08-23T08:01:32;82.67;;;3.70;;
4895;SDS011;2463;49.948;8.472;2022-08-23T08:04:00;82.97;;;3.20;;
4895;SDS011;2463;49.948;8.472;2022-08-23T08:06:29;82.47;;;3.50;;
4895;SDS011;2463;49.948;8.472;2022-08-23T08:08:58;83.47;;;3.60;;
4895;SDS011;2463;49.948;8.472;2022-08-23T08:11:26;79.40;;;3.17;;
4895;SDS011;2463;49.948;8.472;2022-08-23T08:14:02;84.10;;;3.37;;
4895;SDS011;2463;49.948;8.472;2022-08-23T08:16:33;79.60;;;3.03;;
4895;SDS011;2463;49.948;8.472;2022-08-23T08:19:02;84.27;;;3.30;;
4895;SDS011;2463;49.948;8.472;2022-08-23T08:21:33;80.47;;;3.10;;
4895;SDS011;2463;49.948;8.472;2022-08-23T08:24:04;82.10;;;3.30;;
4895;SDS011;2463;49.948;8.472;2022-08-23T08:26:31;80.53;;;3.40;;
4895;SDS011;2463;49.948;8.472;2022-08-23T08:28:58;79.80;;;3.00;;
4895;SDS011;2463;49.948;8.472;2022-08-23T08:31:25;84.40;;;3.47;;
4895;SDS011;2463;49.948;8.472;2022-08-23T08:33:52;81.80;;;3.67;;
4895;SDS011;2463;49.948;8.472;2022-08-23T08:36:27;85.43;;;3.33;;
4895;SDS011;2463;49.948;8.472;2022-08-23T08:39:03;80.87;;;3.63;;
4895;SDS011;2463;49.948;8.472;2022-08-23T08:41:46;80.23;;;3.30;;
4895;SDS011;2463;49.948;8.472;2022-08-23T08:44:39;81.50;;;3.60;;
4895;SDS011;2463;49.948;8.472;2022-08-23T08:50:20;83.27;;;3.83;;
4895;SDS011;2463;49.948;8.472;2022-08-23T08:55:26;82.57;;;3.33;;
4895;SDS011;2463;49.948;8.472;2022-08-23T08:57:59;80.77;;;3.40;;
4895;SDS011;2463;49.948;8.472;2022-08-23T09:00:28;81.27;;;3.57;;
4895;SDS011;2463;49.948;8.472;2022-08-23T09:02:59;82.37;;;4.10;;
4895;SDS011;2463;49.948;8.472;2022-08-23T09:05:30;81.57;;;3.40;;
4895;SDS011;2463;49.948;8.472;2022-08-23T09:11:06;85.00;;;3.17;;
4895;SDS011;2463;49.948;8.472;2022-08-23T09:19:13;81.70;;;3.40;;
4895;SDS011;2463;49.948;8.472;2022-08-23T09:21:42;82.17;;;3.87;;
4895;SDS011;2463;49.948;8.472;2022-08-23T09:24:20;80.30;;;3.70;;
4895;SDS011;2463;49.948;8.472;2022-08-23T09:26:47;80.57;;;3.50;;
4895;SDS011;2463;49.948;8.472;2022-08-23T09:29:19;81.47;;;3.63;;
4895;SDS011;2463;49.948;8.472;2022-08-23T09:31:58;82.43;;;3.13;;
4895;SDS011;2463;49.948;8.472;2022-08-23T09:39:36;81.30;;;3.70;;
4895;SDS011;2463;49.948;8.472;2022-08-23T09:42:07;79.63;;;3.40;;
4895;SDS011;2463;49.948;8.472;2022-08-23T09:44:50;83.80;;;3.40;;
4895;SDS011;2463;49.948;8.472;2022-08-23T09:47:16;80.57;;;3.60;;
4895;SDS011;2463;49.948;8.472;2022-08-23T09:49:44;80.87;;;3.57;;
4895;SDS011;2463;49.948;8.472;2022-08-23T09:52:36;82.33;;;3.77;;
4895;SDS011;2463;49.948;8.472;2022-08-23T09:55:09;82.97;;;4.13;;
4895;SDS011;2463;49.948;8.472;2022-08-23T09:57:50;80.10;;;3.53;;
4895;SDS011;2463;49.948;8.472;2022-08-23T10:02:52;79.90;;;3.50;;
4895;SDS011;2463;49.948;8.472;2022-08-23T10:05:36;82.77;;;4.93;;
4895;SDS011;2463;49.948;8.472;2022-08-23T10:08:04;83.80;;;3.93;;
4895;SDS011;2463;49.948;8.472;2022-08-23T10:10:40;82.67;;;3.67;;
4895;SDS011;2463;49.948;8.472;2022-08-23T10:13:16;81.50;;;3.60;;
4895;SDS011;2463;49.948;8.472;2022-08-23T10:21:35;80.10;;;3.60;;
4895;SDS011;2463;49.948;8.472;2022-08-23T10:26:44;80.83;;;3.87;;
4895;SDS011;2463;49.948;8.472;2022-08-23T10:29:38;80.20;;;3.23;;
4895;SDS011;2463;49.948;8.472;2022-08-23T10:45:37;80.30;;;2.93;;
4895;SDS011;2463;49.948;8.472;2022-08-23T10:48:17;76.93;;;2.80;;
4895;SDS011;2463;49.948;8.472;2022-08-23T10:51:01;79.90;;;3.57;;
4895;SDS011;2463;49.948;8.472;2022-08-23T10:54:12;80.30;;;3.27;;
4895;SDS011;2463;49.948;8.472;2022-08-23T10:56:44;78.53;;;3.27;;
4895;SDS011;2463;49.948;8.472;2022-08-23T10:59:17;77.77;;;3.13;;
4895;SDS011;2463;49.948;8.472;2022-08-23T11:04:50;78.33;;;3.10;;
4895;SDS011;2463;49.948;8.472;2022-08-23T11:07:29;84.10;;;4.10;;
4895;SDS011;2463;49.948;8.472;2022-08-23T11:12:50;79.27;;;3.70;;
4895;SDS011;2463;49.948;8.472;2022-08-23T11:15:18;77.13;;;3.43;;
4895;SDS011;2463;49.948;8.472;2022-08-23T11:17:53;77.00;;;3.40;;
4895;SDS011;2463;49.948;8.472;2022-08-23T11:26:07;76.50;;;3.23;;
4895;SDS011;2463;49.948;8.472;2022-08-23T11:28:48;85.33;;;3.30;;
4895;SDS011;2463;49.948;8.472;2022-08-23T11:31:18;76.47;;;2.83;;
4895;SDS011;2463;49.948;8.472;2022-08-23T11:33:58;77.47;;;3.10;;
4895;SDS011;2463;49.948;8.472;2022-08-23T11:36:32;77.13;;;3.40;;
4895;SDS011;2463;49.948;8.472;2022-08-23T11:39:02;79.27;;;3.80;;
4895;SDS011;2463;49.948;8.472;2022-08-23T11:41:31;76.10;;;3.10;;
4895;SDS011;2463;49.948;8.472;2022-08-23T11:46:31;75.07;;;3.00;;
4895;SDS011;2463;49.948;8.472;2022-08-23T11:49:34;76.90;;;3.30;;
4895;SDS011;2463;49.948;8.472;2022-08-23T11:55:06;74.97;;;3.10;;
4895;SDS011;2463;49.948;8.472;2022-08-23T12:01:15;77.40;;;3.30;;
4895;SDS011;2463;49.948;8.472;2022-08-23T12:03:31;76.10;;;3.20;;
4895;SDS011;2463;49.948;8.472;2022-08-23T12:11:14;78.67;;;3.40;;
4895;SDS011;2463;49.948;8.472;2022-08-23T12:21:17;77.40;;;2.97;;
4895;SDS011;2463;49.948;8.472;2022-08-23T12:24:13;76.77;;;3.40;;
4895;SDS011;2463;49.948;8.472;2022-08-23T12:34:16;75.00;;;2.93;;
4895;SDS011;2463;49.948;8.472;2022-08-23T12:37:08;75.47;;;2.90;;
4895;SDS011;2463;49.948;8.472;2022-08-23T12:39:59;74.20;;;2.50;;
4895;SDS011;2463;49.948;8.472;2022-08-23T12:42:29;75.30;;;2.90;;
4895;SDS011;2463;49.948;8.472;2022-08-23T12:45:00;75.60;;;2.93;;
4895;SDS011;2463;49.948;8.472;2022-08-23T12:47:31;76.67;;;3.07;;
4895;SDS011;2463;49.948;8.472;2022-08-23T12:49:59;78.40;;;3.20;;
4895;SDS011;2463;49.948;8.472;2022-08-23T12:52:31;77.53;;;2.93;;
4895;SDS011;2463;49.948;8.472;2022-08-23T12:55:00;78.00;;;2.97;;
4895;SDS011;2463;49.948;8.472;2022-08-23T12:57:34;77.70;;;3.37;;
4895;SDS011;2463;49.948;8.472;2022-08-23T13:02:48;77.27;;;2.90;;
4895;SDS011;2463;49.948;8.472;2022-08-23T13:05:42;78.77;;;3.60;;
4895;SDS011;2463;49.948;8.472;2022-08-23T13:08:13;77.30;;;2.90;;
4895;SDS011;2463;49.948;8.472;2022-08-23T13:10:52;77.10;;;3.67;;
4895;SDS011;2463;49.948;8.472;2022-08-23T13:13:26;77.10;;;2.97;;
4895;SDS011;2463;49.948;8.472;2022-08-23T13:15:57;77.00;;;2.90;;
4895;SDS011;2463;49.948;8.472;2022-08-23T13:23:49;79.27;;;3.03;;
4895;SDS011;2463;49.948;8.472;2022-08-23T13:29:11;77.33;;;2.97;;
4895;SDS011;2463;49.948;8.472;2022-08-23T13:31:47;78.97;;;3.83;;
4895;SDS011;2463;49.948;8.472;2022-08-23T13:34:36;76.50;;;3.10;;
4895;SDS011;2463;49.948;8.472;2022-08-23T13:37:07;78.43;;;3.13;;
4895;SDS011;2463;49.948;8.472;2022-08-23T13:39:48;78.43;;;3.20;;
4895;SDS011;2463;49.948;8.472;2022-08-23T13:44:57;77.70;;;2.93;;
4895;SDS011;2463;49.948;8.472;2022-08-23T13:47:31;76.10;;;3.20;;
4895;SDS011;2463;49.948;8.472;2022-08-23T13:50:03;77.30;;;2.77;;
4895;SDS011;2463;49.948;8.472;2022-08-23T13:52:36;77.47;;;3.00;;
4895;SDS011;2463;49.948;8.472;2022-08-23T13:55:23;76.70;;;3.20;;
4895;SDS011;2463;49.948;8.472;2022-08-23T13:57:51;75.07;;;2.67;;
4895;SDS011;2463;49.948;8.472;2022-08-23T14:00:18;76.20;;;3.10;;
4895;SDS011;2463;49.948;8.472;2022-08-23T14:02:48;76.30;;;3.30;;
4895;SDS011;2463;49.948;8.472;2022-08-23T14:05:17;76.50;;;3.57;;
4895;SDS011;2463;49.948;8.472;2022-08-23T14:07:47;77.47;;;3.00;;
4895;SDS011;2463;49.948;8.472;2022-08-23T14:10:19;76.00;;;3.03;;
4895;SDS011;2463;49.948;8.472;2022-08-23T14:12:48;77.13;;;3.20;;
4895;SDS011;2463;49.948;8.472;2022-08-23T14:15:17;75.40;;;2.77;;
4895;SDS011;2463;49.948;8.472;2022-08-23T14:17:46;79.70;;;2.97;;
4895;SDS011;2463;49.948;8.472;2022-08-23T14:20:15;75.37;;;3.00;;
4895;SDS011;2463;49.948;8.472;2022-08-23T14:23:03;75.57;;;3.03;;
4895;SDS011;2463;49.948;8.472;2022-08-23T14:25:37;76.37;;;2.80;;
4895;SDS011;2463;49.948;8.472;2022-08-23T14:28:05;76.20;;;2.90;;
4895;SDS011;2463;49.948;8.472;2022-08-23T14:30:32;78.63;;;3.20;;
4895;SDS011;2463;49.948;8.472;2022-08-23T14:33:01;78.00;;;3.30;;
4895;SDS011;2463;49.948;8.472;2022-08-23T14:35:29;77.50;;;3.70;;
4895;SDS011;2463;49.948;8.472;2022-08-23T14:37:56;81.20;;;3.40;;
4895;SDS011;2463;49.948;8.472;2022-08-23T14:40:30;76.17;;;2.73;;
4895;SDS011;2463;49.948;8.472;2022-08-23T14:42:58;77.30;;;3.30;;
4895;SDS011;2463;49.948;8.472;2022-08-23T14:45:25;78.80;;;3.27;;
4895;SDS011;2463;49.948;8.472;2022-08-23T14:47:52;79.20;;;3.60;;
4895;SDS011;2463;49.948;8.472;2022-08-23T14:50:19;76.67;;;3.43;;
4895;SDS011;2463;49.948;8.472;2022-08-23T14:52:46;77.83;;;3.30;;
4895;SDS011;2463;49.948;8.472;2022-08-23T14:55:13;77.63;;;3.17;;
4895;SDS011;2463;49.948;8.472;2022-08-23T14:57:40;76.83;;;3.37;;
4895;SDS011;2463;49.948;8.472;2022-08-23T15:00:07;77.23;;;2.73;;
4895;SDS011;2463;49.948;8.472;2022-08-23T15:02:45;79.43;;;3.13;;
4895;SDS011;2463;49.948;8.472;2022-08-23T15:05:13;78.90;;;3.53;;
4895;SDS011;2463;49.948;8.472;2022-08-23T15:07:40;78.93;;;3.63;;
4895;SDS011;2463;49.948;8.472;2022-08-23T15:10:07;80.17;;;3.33;;
4895;SDS011;2463;49.948;8.472;2022-08-23T15:12:36;79.70;;;3.13;;
4895;SDS011;2463;49.948;8.472;2022-08-23T15:15:23;78.87;;;3.50;;
4895;SDS011;2463;49.948;8.472;2022-08-23T15:17:57;81.90;;;3.03;;
4895;SDS011;2463;49.948;8.472;2022-08-23T15:20:28;78.60;;;3.20;;
4895;SDS011;2463;49.948;8.472;2022-08-23T15:22:57;77.77;;;3.10;;
4895;SDS011;2463;49.948;8.472;2022-08-23T15:25:25;81.17;;;3.63;;
4895;SDS011;2463;49.948;8.472;2022-08-23T15:27:54;79.20;;;3.60;;
4895;SDS011;2463;49.948;8.472;2022-08-23T15:30:22;81.47;;;3.50;;
4895;SDS011;2463;49.948;8.472;2022-08-23T15:32:49;80.07;;;3.50;;
4895;SDS011;2463;49.948;8.472;2022-08-23T15:35:21;89.53;;;3.90;;
4895;SDS011;2463;49.948;8.472;2022-08-23T15:37:49;81.10;;;3.40;;
4895;SDS011;2463;49.948;8.472;2022-08-23T15:40:17;78.90;;;3.37;;
4895;SDS011;2463;49.948;8.472;2022-08-23T15:42:44;80.30;;;3.60;;
4895;SDS011;2463;49.948;8.472;2022-08-23T15:45:11;79.40;;;3.33;;
4895;SDS011;2463;49.948;8.472;2022-08-23T15:47:42;80.07;;;3.70;;
4895;SDS011;2463;49.948;8.472;2022-08-23T15:50:12;78.87;;;3.30;;
4895;SDS011;2463;49.948;8.472;2022-08-23T15:52:41;80.47;;;3.60;;
4895;SDS011;2463;49.948;8.472;2022-08-23T15:55:08;81.60;;;3.63;;
4895;SDS011;2463;49.948;8.472;2022-08-23T15:57:45;79.07;;;3.63;;
4895;SDS011;2463;49.948;8.472;2022-08-23T16:00:15;86.00;;;4.00;;
4895;SDS011;2463;49.948;8.472;2022-08-23T16:02:43;78.90;;;3.13;;
4895;SDS011;2463;49.948;8.472;2022-08-23T16:05:30;79.20;;;3.17;;
4895;SDS011;2463;49.948;8.472;2022-08-23T16:07:57;78.57;;;3.23;;
4895;SDS011;2463;49.948;8.472;2022-08-23T16:10:24;80.27;;;3.30;;
4895;SDS011;2463;49.948;8.472;2022-08-23T16:12:53;81.57;;;3.40;;
4895;SDS011;2463;49.948;8.472;2022-08-23T16:15:20;80.83;;;3.50;;
4895;SDS011;2463;49.948;8.472;2022-08-23T16:17:47;80.00;;;3.73;;
4895;SDS011;2463;49.948;8.472;2022-08-23T16:20:14;79.47;;;3.40;;
4895;SDS011;2463;49.948;8.472;2022-08-23T16:22:42;80.40;;;3.60;;
4895;SDS011;2463;49.948;8.472;2022-08-23T16:25:09;80.23;;;3.23;;
4895;SDS011;2463;49.948;8.472;2022-08-23T16:27:36;79.30;;;3.40;;
4895;SDS011;2463;49.948;8.472;2022-08-23T16:30:03;78.83;;;3.13;;
4895;SDS011;2463;49.948;8.472;2022-08-23T16:32:31;78.57;;;3.30;;
4895;SDS011;2463;49.948;8.472;2022-08-23T16:34:58;81.00;;;3.50;;
4895;SDS011;2463;49.948;8.472;2022-08-23T16:37:25;81.10;;;3.97;;
4895;SDS011;2463;49.948;8.472;2022-08-23T16:39:51;81.60;;;3.83;;
4895;SDS011;2463;49.948;8.472;2022-08-23T16:42:18;78.87;;;3.37;;
4895;SDS011;2463;49.948;8.472;2022-08-23T16:44:45;80.00;;;3.70;;
4895;SDS011;2463;49.948;8.472;2022-08-23T16:47:12;81.03;;;3.50;;
4895;SDS011;2463;49.948;8.472;2022-08-23T16:49:40;81.87;;;3.63;;
4895;SDS011;2463;49.948;8.472;2022-08-23T16:52:08;80.40;;;3.37;;
4895;SDS011;2463;49.948;8.472;2022-08-23T16:54:36;81.43;;;3.77;;
4895;SDS011;2463;49.948;8.472;2022-08-23T16:57:03;80.37;;;3.20;;
4895;SDS011;2463;49.948;8.472;2022-08-23T16:59:30;79.87;;;3.37;;
4895;SDS011;2463;49.948;8.472;2022-08-23T17:02:02;80.77;;;3.60;;
4895;SDS011;2463;49.948;8.472;2022-08-23T17:04:36;80.87;;;3.67;;
4895;SDS011;2463;49.948;8.472;2022-08-23T17:07:03;81.10;;;3.57;;
4895;SDS011;2463;49.948;8.472;2022-08-23T17:09:30;81.57;;;3.40;;
4895;SDS011;2463;49.948;8.472;2022-08-23T17:11:56;80.67;;;3.37;;